Deary, ID

8:59 AM PDT on October 02, 2014 (GMT -0700)
ITD Deary ID US | Change Station
CLOSE
Current Station
Personal Weather Station
Location: Deary, ID
Elevation: 2932 ft
Nearby Weather Stations

Elev 2932 ft 46.80 °N, 116.55 °W | Updated 44 minutes ago

Clear
Clear
44 °F
Feels Like 44 °F
N
2
Wind Variable Wind from ESE
Gusts 3.0 mph

Today
High -- | Low -- °F
--% Chance of Precip.
Yesterday
High -- | Low -- °F
Precip. -- in
6:46 AM 6:23 PM
First Quarter, 60% visible
Pressure 30.27 in
Visibility 10.0 miles
Clouds Clear
Windchill 44 °F
Dew Point 42 °F
Humidity 94%
Rainfall -999.00 in
Snow Depth 0 in , 1 in , 1 in
UV 1 out of 12
Pollen 5.50 out of 12
Air Quality Not available.
Flu Activity Not available.
METAR KPUW 021553Z AUTO VRB03KT 10SM CLR 09/04 A3025 RMK AO2 SLP251 T00940039

More Conditions Fewer Conditions

Pressure 30.27 in
Visibility 10.0 miles
Clouds Clear
Windchill 44 °F
Dew Point 42 °F
Humidity 94%
Rainfall -999.00 in
Snow Depth 0 in , 1 in , 1 in
UV 1 out of 12
Pollen 5.50 out of 12
Air Quality Not available.
Flu Activity Not available.
METAR KPUW 021553Z AUTO VRB03KT 10SM CLR 09/04 A3025 RMK AO2 SLP251 T00940039

More Conditions Fewer Conditions

10-Day Weather Forecast

Almanac

Astronomy

Oct. 02, 2014 Rise Set
Actual Time 6:46 AM PDT 6:23 PM PDT
Civil Twilight 6:16 AM PDT 6:53 PM PDT
Nautical Twilight 5:40 AM PDT 7:28 PM PDT
Astronomical Twilight 5:05 AM PDT 8:04 PM PDT
Moon 2:52 PM PDT No Moon Set
Length of Visible Light 12h 37m
Length of Day
11h 37m
Tomorrow will be 3m 18s shorter.
First Quarter, 60% of the Moon is Illuminated
Today
First Quarter
Oct 8
Full
Oct 15
Last Quarter
Oct 23
New
Oct 30
First Quarter

Today's Extremes

State Highs State Lows

Community

WunderPhotos

Upload Photos

1,758,276 photos uploaded!

WunderBlogs® & News

Nearby

Snow Depth

Station Depth Elevation
Moscow Mountain 0 in 4700 ft
Cozy Cove 1 in 5380 ft
Savage Pass 1 in 6170 ft
Island Park 0 in 6290 ft
Morgan Creek 1 in 7600 ft

Earthquake Activity

City Distance Mag. Time & Date
No recent earthquake activity has been reported nearby.
Minimum magnitude displayed is 2.5.

Coastal Water Temperatures

Place Temperature
No Stations Reporting

Nearby Weather Stations